Time;durP1;ratioP1;P1;durP2;ratioP2;P2;SDS_P1;SDS_P2;PMS_P1;PMS_P2;Temp;Humidity;BMP_temperature;BMP_pressure;BME280_temperature;BME280_humidity;BME280_pressure;Samples;Min_cycle;Max_cycle;Signal;HPM_P1;HPM_P2
2023/12/09 00:02:11;;;;;;;2.92;2.50;;;33.10;45.40;;;;;;6155098;23;20001;-70
2023/12/09 00:04:38;;;;;;;8.48;2.80;;;33.20;44.90;;;;;;6155535;23;20013;-70
2023/12/09 00:07:05;;;;;;;5.60;2.67;;;33.30;44.80;;;;;;6155205;23;20029;-70
2023/12/09 00:09:33;;;;;;;3.15;2.50;;;33.30;45.20;;;;;;6155282;23;20001;-70
2023/12/09 00:12:00;;;;;;;5.40;2.75;;;33.30;45.00;;;;;;6155337;23;20064;-70
2023/12/09 00:14:27;;;;;;;3.42;2.65;;;33.30;44.30;;;;;;6155415;23;20005;-70
2023/12/09 00:16:54;;;;;;;4.93;2.70;;;33.30;44.50;;;;;;6155460;23;20008;-71
2023/12/09 00:19:22;;;;;;;4.65;2.60;;;33.30;44.80;;;;;;6154933;23;20009;-71
2023/12/09 00:21:49;;;;;;;3.70;2.50;;;33.30;44.30;;;;;;6155340;23;20009;-70
2023/12/09 00:24:16;;;;;;;4.75;2.70;;;33.30;44.10;;;;;;6155094;23;20036;-71
2023/12/09 00:26:43;;;;;;;4.65;2.80;;;33.40;44.00;;;;;;6129320;23;20437;-71
2023/12/09 00:29:10;;;;;;;4.80;2.80;;;33.40;43.30;;;;;;6155017;23;20029;-71
2023/12/09 00:31:38;;;;;;;3.58;2.70;;;33.40;43.60;;;;;;6154846;23;20021;-71
2023/12/09 00:34:06;;;;;;;5.30;2.75;;;33.50;43.00;;;;;;6155002;23;20008;-70
2023/12/09 00:36:33;;;;;;;6.93;3.13;;;33.50;44.10;;;;;;6155267;23;20064;-71
2023/12/09 00:39:01;;;;;;;4.47;2.92;;;33.60;43.50;;;;;;6154629;23;20056;-72
2023/12/09 00:41:28;;;;;;;4.90;3.00;;;33.70;43.00;;;;;;6154994;23;20001;-71
2023/12/09 00:43:55;;;;;;;4.75;2.80;;;33.80;43.30;;;;;;6154970;23;20338;-70
2023/12/09 00:46:22;;;;;;;6.55;3.20;;;33.80;43.10;;;;;;6154808;23;20491;-70
2023/12/09 00:48:50;;;;;;;5.30;2.90;;;33.80;43.60;;;;;;6155021;23;20206;-70
2023/12/09 00:51:17;;;;;;;3.65;2.80;;;33.90;43.00;;;;;;6154443;23;20437;-70
2023/12/09 00:53:44;;;;;;;5.53;3.10;;;34.00;41.70;;;;;;6154566;23;20010;-71
2023/12/09 00:56:12;;;;;;;5.28;2.90;;;34.00;41.50;;;;;;6154497;23;20008;-70
2023/12/09 00:58:40;;;;;;;5.40;2.90;;;34.00;40.90;;;;;;6153818;23;20010;-70
2023/12/09 01:01:07;;;;;;;9.27;3.03;;;34.10;41.70;;;;;;6154855;23;20430;-70
2023/12/09 01:03:34;;;;;;;3.22;2.92;;;34.10;41.40;;;;;;6155065;23;20544;-70
2023/12/09 01:06:01;;;;;;;6.28;3.22;;;34.20;40.80;;;;;;6154933;23;20072;-70
2023/12/09 01:08:29;;;;;;;5.38;2.75;;;34.20;40.80;;;;;;6154821;23;20044;-70
2023/12/09 01:10:56;;;;;;;4.05;3.00;;;34.30;41.10;;;;;;6154434;23;20002;-70
2023/12/09 01:13:23;;;;;;;4.85;3.17;;;34.30;40.10;;;;;;6154103;23;20009;-70
2023/12/09 01:15:50;;;;;;;4.00;3.30;;;34.40;40.80;;;;;;6154715;23;20006;-70
2023/12/09 01:18:18;;;;;;;5.82;3.10;;;34.50;40.50;;;;;;6154956;23;20051;-70
2023/12/09 01:20:45;;;;;;;5.60;3.22;;;34.60;39.20;;;;;;6154891;23;20029;-70
2023/12/09 01:23:13;;;;;;;7.20;3.20;;;34.60;39.90;;;;;;6154774;23;20429;-70
2023/12/09 01:25:40;;;;;;;4.80;3.10;;;34.60;38.90;;;;;;6128968;23;20431;-70
2023/12/09 01:28:07;;;;;;;5.80;3.33;;;34.70;38.80;;;;;;6154731;23;20108;-70
2023/12/09 01:30:35;;;;;;;4.93;3.35;;;34.60;38.50;;;;;;6128963;23;20385;-70
2023/12/09 01:33:02;;;;;;;4.60;3.10;;;34.60;39.80;;;;;;6155070;23;20002;-70
2023/12/09 01:35:29;;;;;;;4.63;3.03;;;34.60;38.70;;;;;;6154528;23;20060;-69
2023/12/09 01:37:57;;;;;;;3.88;2.90;;;34.60;39.20;;;;;;6154689;23;20409;-69
2023/12/09 01:40:24;;;;;;;6.25;3.58;;;34.70;39.40;;;;;;6154820;23;20009;-69
2023/12/09 01:42:51;;;;;;;6.88;3.38;;;34.80;39.00;;;;;;6154723;23;20065;-69
2023/12/09 01:45:20;;;;;;;6.07;3.30;;;34.80;38.60;;;;;;6154502;23;20005;-69
2023/12/09 01:47:48;;;;;;;5.03;2.95;;;34.80;38.60;;;;;;6154520;23;20341;-69
2023/12/09 01:50:18;;;;;;;4.90;3.47;;;34.90;37.80;;;;;;6154096;23;20006;-69
2023/12/09 01:52:46;;;;;;;6.60;3.20;;;34.90;38.00;;;;;;6104563;23;20009;-69
2023/12/09 01:55:13;;;;;;;6.43;3.43;;;34.90;38.10;;;;;;6154692;23;19997;-69
2023/12/09 01:57:40;;;;;;;8.18;4.20;;;34.90;37.90;;;;;;6104823;23;20072;-69
2023/12/09 02:00:08;;;;;;;5.65;3.72;;;35.00;41.30;;;;;;6154795;23;20663;-69
2023/12/09 02:02:36;;;;;;;11.17;3.93;;;35.00;41.90;;;;;;6127923;23;20409;-69
2023/12/09 02:05:03;;;;;;;6.25;3.67;;;34.90;43.40;;;;;;6154572;23;20314;-69
2023/12/09 02:07:30;;;;;;;7.35;4.07;;;34.80;44.40;;;;;;6104656;23;20017;-69
2023/12/09 02:09:58;;;;;;;6.63;3.55;;;34.80;45.00;;;;;;6128364;23;20060;-68
2023/12/09 02:12:28;;;;;;;9.43;4.15;;;34.70;45.60;;;;;;6154694;23;20009;-69
2023/12/09 02:15:37;;;;;;;8.65;3.40;;;34.60;46.20;;;;;;6154734;23;20080;-68
2023/12/09 02:18:05;;;;;;;10.73;4.30;;;34.40;45.70;;;;;;6009014;23;20023;-69
2023/12/09 02:20:32;;;;;;;10.00;4.10;;;34.40;45.90;;;;;;6008601;23;20011;-69
2023/12/09 02:23:07;;;;;;;9.10;3.95;;;34.40;46.20;;;;;;6075044;23;20021;-68
2023/12/09 02:25:35;;;;;;;9.40;3.95;;;34.30;45.90;;;;;;6156758;23;20016;-68
2023/12/09 02:28:24;;;;;;;8.20;3.90;;;34.30;46.70;;;;;;6155893;23;20092;-68
2023/12/09 02:30:57;;;;;;;;;;;34.30;46.60;;;;;;6135129;23;20029;-68
2023/12/09 02:33:24;;;;;;;11.98;4.28;;;34.30;47.70;;;;;;6156069;23;19971;-68
2023/12/09 02:35:52;;;;;;;10.90;4.05;;;34.30;46.10;;;;;;6156074;23;20009;-68
2023/12/09 02:38:19;;;;;;;11.65;4.43;;;34.20;48.30;;;;;;6106208;23;20055;-68
2023/12/09 02:40:46;;;;;;;12.55;3.90;;;34.10;49.50;;;;;;6130317;23;20072;-68
2023/12/09 02:43:14;;;;;;;10.10;4.10;;;34.00;49.00;;;;;;6155311;23;20377;-68
2023/12/09 02:45:41;;;;;;;11.25;4.28;;;33.80;50.20;;;;;;6130269;23;20001;-68
2023/12/09 02:48:08;;;;;;;8.82;4.03;;;33.70;50.60;;;;;;6130421;23;20013;-68
2023/12/09 02:50:36;;;;;;;10.13;3.97;;;33.50;51.10;;;;;;6155537;23;20068;-68
2023/12/09 02:53:03;;;;;;;10.20;4.18;;;33.40;50.80;;;;;;6129500;23;20496;-68
2023/12/09 02:55:31;;;;;;;9.95;4.13;;;33.30;49.80;;;;;;6155570;23;20429;-68
2023/12/09 02:57:58;;;;;;;7.57;3.72;;;33.30;50.30;;;;;;6155666;23;20333;-68
2023/12/09 03:00:25;;;;;;;11.60;4.60;;;33.20;51.10;;;;;;6155939;23;20005;-68
2023/12/09 03:02:52;;;;;;;9.20;4.10;;;32.90;52.60;;;;;;6155455;23;20002;-68
2023/12/09 03:05:20;;;;;;;12.45;4.40;;;32.70;52.60;;;;;;6155806;23;20016;-68
2023/12/09 03:07:47;;;;;;;12.60;4.28;;;32.40;53.20;;;;;;6155803;23;20013;-67
2023/12/09 03:10:14;;;;;;;11.07;4.22;;;32.30;53.20;;;;;;6155757;23;20024;-68
2023/12/09 03:12:41;;;;;;;13.25;4.20;;;32.10;54.30;;;;;;6155705;23;20088;-68
2023/12/09 03:15:09;;;;;;;16.35;4.45;;;32.00;55.40;;;;;;6156019;23;20077;-68
2023/12/09 03:17:37;;;;;;;9.80;4.05;;;32.10;54.80;;;;;;6155666;23;20001;-69
2023/12/09 03:20:08;;;;;;;11.02;4.18;;;32.10;55.70;;;;;;6155918;23;20334;-69
2023/12/09 03:22:35;;;;;;;12.55;4.32;;;32.10;54.90;;;;;;6155449;23;20318;-68
2023/12/09 03:25:03;;;;;;;10.48;4.18;;;32.10;55.60;;;;;;6155381;23;20006;-69
2023/12/09 03:27:30;;;;;;;11.48;4.07;;;32.10;55.50;;;;;;6154663;23;20100;-68
2023/12/09 03:29:57;;;;;;;13.32;4.75;;;32.20;55.00;;;;;;6155491;23;20027;-69
2023/12/09 03:32:24;;;;;;;16.95;4.30;;;32.10;55.00;;;;;;6155152;23;20013;-68
2023/12/09 03:34:52;;;;;;;11.02;4.30;;;32.10;54.40;;;;;;6155591;23;20017;-68
2023/12/09 03:37:19;;;;;;;10.73;4.55;;;32.10;55.00;;;;;;6155414;23;20455;-68
2023/12/09 03:39:46;;;;;;;12.82;4.18;;;32.10;56.20;;;;;;6155643;23;20091;-68
2023/12/09 03:42:13;;;;;;;14.05;4.20;;;31.90;55.90;;;;;;6155615;23;19998;-68
2023/12/09 03:44:41;;;;;;;12.82;3.97;;;31.90;57.10;;;;;;6155347;23;20444;-68
2023/12/09 03:47:08;;;;;;;11.73;4.13;;;31.80;56.70;;;;;;6155630;23;20021;-68
2023/12/09 03:49:35;;;;;;;10.88;4.63;;;31.80;56.30;;;;;;6155552;23;20386;-70
2023/12/09 03:52:02;;;;;;;12.45;4.38;;;31.80;56.70;;;;;;6155090;23;20057;-68
2023/12/09 03:54:30;;;;;;;10.30;4.10;;;31.70;57.10;;;;;;6155195;23;20012;-68
2023/12/09 03:56:57;;;;;;;12.52;4.43;;;31.70;56.90;;;;;;6154901;23;20088;-68
2023/12/09 03:59:24;;;;;;;12.52;4.10;;;31.70;56.50;;;;;;6155273;23;20091;-68
2023/12/09 04:01:51;;;;;;;12.40;3.95;;;31.70;54.50;;;;;;6155071;23;20001;-67
2023/12/09 04:04:19;;;;;;;10.43;3.90;;;31.80;53.80;;;;;;6155227;23;20101;-68
2023/12/09 04:06:46;;;;;;;15.50;4.07;;;31.80;53.20;;;;;;6155498;23;20054;-67
2023/12/09 04:09:13;;;;;;;11.30;3.88;;;31.90;53.00;;;;;;6155221;23;20085;-67
2023/12/09 04:11:41;;;;;;;13.18;4.35;;;32.00;53.00;;;;;;6154824;23;20375;-68
2023/12/09 04:14:08;;;;;;;9.65;3.45;;;32.00;53.30;;;;;;6155184;23;20433;-67
2023/12/09 04:16:36;;;;;;;12.07;4.10;;;32.10;52.90;;;;;;6154933;23;20001;-67
2023/12/09 04:19:03;;;;;;;12.02;3.70;;;32.10;51.90;;;;;;6155210;23;20370;-67
2023/12/09 04:21:30;;;;;;;10.02;3.85;;;32.10;51.50;;;;;;6154607;23;19998;-67
2023/12/09 04:23:57;;;;;;;15.77;3.58;;;32.10;51.10;;;;;;6129117;23;20009;-67
2023/12/09 04:26:25;;;;;;;12.40;3.70;;;32.10;50.80;;;;;;6154942;23;20029;-67
2023/12/09 04:28:52;;;;;;;7.90;3.40;;;32.00;50.40;;;;;;6123924;23;20100;-66
2023/12/09 04:31:19;;;;;;;14.02;3.60;;;32.10;50.20;;;;;;6125272;23;20077;-67
2023/12/09 04:33:46;;;;;;;7.78;3.78;;;32.00;50.40;;;;;;6125527;23;20001;-67
2023/12/09 04:36:14;;;;;;;15.48;3.88;;;31.90;51.20;;;;;;6124260;23;20009;-67
2023/12/09 04:38:41;;;;;;;7.78;3.47;;;31.80;51.70;;;;;;6124955;23;20012;-67
2023/12/09 04:41:08;;;;;;;13.63;3.55;;;31.80;51.50;;;;;;6125097;23;20037;-67
2023/12/09 04:43:35;;;;;;;15.85;3.70;;;31.70;51.90;;;;;;6125385;23;19998;-67
2023/12/09 04:46:03;;;;;;;8.60;3.30;;;31.50;52.20;;;;;;6125017;23;20089;-67
2023/12/09 04:48:30;;;;;;;8.70;3.15;;;31.50;52.40;;;;;;6123634;23;20326;-67
2023/12/09 04:50:57;;;;;;;12.80;3.55;;;31.30;52.10;;;;;;6125432;23;20005;-67
2023/12/09 04:53:24;;;;;;;11.48;3.58;;;31.30;53.50;;;;;;6125298;23;20077;-67
2023/12/09 04:55:52;;;;;;;9.50;3.40;;;31.20;53.00;;;;;;6125662;23;20029;-67
2023/12/09 04:58:19;;;;;;;10.93;3.25;;;31.20;52.40;;;;;;6125412;23;20017;-67
2023/12/09 05:00:46;;;;;;;8.43;3.28;;;31.20;51.90;;;;;;6125179;23;20025;-67
2023/12/09 05:03:14;;;;;;;12.18;3.35;;;31.20;52.20;;;;;;6124760;23;20006;-67
2023/12/09 05:05:41;;;;;;;10.05;3.25;;;31.20;50.60;;;;;;6125340;23;20029;-67
2023/12/09 05:08:09;;;;;;;10.82;3.47;;;31.30;51.30;;;;;;6125542;23;20022;-67
2023/12/09 05:10:36;;;;;;;11.55;3.28;;;31.30;50.40;;;;;;6123611;23;20033;-67
2023/12/09 05:13:03;;;;;;;8.43;3.30;;;31.30;50.30;;;;;;6125308;23;20038;-67
2023/12/09 05:15:30;;;;;;;8.25;3.20;;;31.30;50.60;;;;;;6124715;23;20337;-67
2023/12/09 05:17:57;;;;;;;7.03;3.22;;;31.30;51.20;;;;;;6124646;23;20010;-67
2023/12/09 05:20:25;;;;;;;11.40;3.70;;;31.20;51.30;;;;;;6125186;23;20025;-67
2023/12/09 05:22:52;;;;;;;9.75;3.10;;;31.20;51.40;;;;;;6125348;23;20452;-67
2023/12/09 05:25:19;;;;;;;10.82;4.13;;;31.20;50.70;;;;;;6125298;23;20006;-68
2023/12/09 05:27:47;;;;;;;11.30;3.85;;;31.20;51.30;;;;;;6123572;23;20013;-67
2023/12/09 05:30:14;;;;;;;10.55;3.53;;;31.10;51.20;;;;;;6154411;23;20013;-67
2023/12/09 05:32:41;;;;;;;9.85;3.42;;;31.10;52.20;;;;;;6154134;23;20013;-67
2023/12/09 05:35:10;;;;;;;11.43;3.80;;;31.00;52.20;;;;;;6153959;23;20051;-67
2023/12/09 05:37:37;;;;;;;10.90;3.30;;;30.90;53.50;;;;;;6128473;23;20491;-67
2023/12/09 05:40:05;;;;;;;11.82;3.83;;;30.90;53.30;;;;;;6154763;23;20002;-68
2023/12/09 05:42:33;;;;;;;19.17;4.28;;;31.00;53.20;;;;;;6154509;23;20060;-67
2023/12/09 05:45:01;;;;;;;11.38;3.63;;;31.00;53.50;;;;;;6154573;23;20377;-68
2023/12/09 05:47:28;;;;;;;13.70;4.20;;;31.00;54.00;;;;;;6154458;23;20040;-67
2023/12/09 05:49:55;;;;;;;9.30;3.85;;;31.10;53.70;;;;;;6154682;23;20009;-68
2023/12/09 05:52:22;;;;;;;10.57;3.80;;;31.10;53.60;;;;;;6156072;23;20006;-67
2023/12/09 05:54:50;;;;;;;13.27;4.53;;;31.20;53.40;;;;;;6156663;23;20025;-67
2023/12/09 05:57:17;;;;;;;8.27;4.00;;;31.30;52.50;;;;;;6130648;23;20059;-68
2023/12/09 05:59:44;;;;;;;8.60;3.70;;;31.30;53.00;;;;;;6156740;23;20357;-68
2023/12/09 06:02:11;;;;;;;7.93;3.72;;;31.30;52.50;;;;;;6155859;23;20005;-68
2023/12/09 06:04:39;;;;;;;8.65;3.38;;;31.30;51.80;;;;;;6156516;23;20009;-68
2023/12/09 06:07:06;;;;;;;8.43;3.53;;;31.40;50.60;;;;;;6156391;23;20011;-68
2023/12/09 06:09:34;;;;;;;9.27;3.38;;;31.50;50.10;;;;;;6130592;23;20006;-67
2023/12/09 06:12:01;;;;;;;6.78;3.60;;;31.50;48.70;;;;;;6155683;23;20077;-68
2023/12/09 06:14:28;;;;;;;7.05;3.67;;;31.50;48.00;;;;;;6156315;23;20085;-67
2023/12/09 06:16:55;;;;;;;6.82;3.70;;;31.60;47.70;;;;;;6156505;23;19998;-67
2023/12/09 06:19:23;;;;;;;7.38;3.83;;;31.70;47.20;;;;;;6156221;23;20337;-67
2023/12/09 06:21:50;;;;;;;6.40;3.30;;;31.80;46.80;;;;;;6156097;23;20323;-67
2023/12/09 06:24:17;;;;;;;7.32;3.13;;;31.80;45.80;;;;;;6156098;23;20012;-67
2023/12/09 06:26:45;;;;;;;8.15;2.70;;;31.80;44.30;;;;;;6155752;23;20400;-67
2023/12/09 06:29:15;;;;;;;8.65;3.20;;;31.90;43.90;;;;;;6156131;23;20097;-67
2023/12/09 06:31:43;;;;;;;7.85;3.40;;;31.90;44.00;;;;;;6156569;23;20299;-67
2023/12/09 06:34:10;;;;;;;11.48;3.15;;;31.90;44.00;;;;;;6155993;23;20098;-67
2023/12/09 06:36:37;;;;;;;3.20;2.30;;;32.00;40.80;;;;;;6155683;23;20072;-67
2023/12/09 06:39:05;;;;;;;4.90;2.60;;;32.10;39.90;;;;;;6155802;23;20036;-67
2023/12/09 06:41:32;;;;;;;3.88;2.47;;;32.20;40.00;;;;;;6155951;23;20075;-67
2023/12/09 06:44:00;;;;;;;6.93;2.80;;;32.30;40.20;;;;;;6129608;23;20337;-67
2023/12/09 06:46:27;;;;;;;8.25;2.90;;;32.30;39.70;;;;;;6156022;23;20017;-68
2023/12/09 06:48:54;;;;;;;7.20;3.00;;;32.30;40.20;;;;;;6156013;23;20060;-67
2023/12/09 06:51:22;;;;;;;4.68;2.35;;;32.30;40.00;;;;;;6156012;23;19997;-67
2023/12/09 06:53:49;;;;;;;4.03;2.42;;;32.30;37.90;;;;;;6129820;23;20006;-67
2023/12/09 06:56:20;;;;;;;3.53;2.65;;;32.40;37.80;;;;;;6155864;23;20499;-67
2023/12/09 06:58:47;;;;;;;3.17;2.47;;;32.40;37.70;;;;;;6155771;23;20040;-67
2023/12/09 07:01:24;;;;;;;5.13;2.88;;;32.50;37.60;;;;;;6129376;23;20493;-67
2023/12/09 07:03:51;;;;;;;6.53;2.70;;;32.40;37.50;;;;;;6155402;23;20002;-67
2023/12/09 07:06:22;;;;;;;6.32;2.83;;;32.50;37.20;;;;;;6129626;23;20514;-67
2023/12/09 07:08:50;;;;;;;4.05;2.58;;;32.50;37.20;;;;;;6129862;23;20009;-67
2023/12/09 07:11:18;;;;;;;3.40;2.45;;;32.50;37.80;;;;;;6155761;23;20017;-67
2023/12/09 07:13:45;;;;;;;4.70;2.60;;;32.40;38.70;;;;;;6130049;23;20021;-67
2023/12/09 07:16:13;;;;;;;4.40;2.67;;;32.40;38.90;;;;;;6155250;23;20001;-67
2023/12/09 07:18:46;;;;;;;11.23;3.13;;;32.30;39.90;;;;;;6155203;23;20005;-67
2023/12/09 07:21:14;;;;;;;6.90;3.00;;;32.30;40.60;;;;;;6155552;23;20006;-67
2023/12/09 07:23:42;;;;;;;9.88;3.55;;;32.20;41.40;;;;;;6155572;23;20002;-67
2023/12/09 07:26:11;;;;;;;6.72;3.28;;;32.20;42.30;;;;;;6155832;23;20006;-67
2023/12/09 07:28:38;;;;;;;7.20;3.38;;;32.10;43.20;;;;;;6154850;23;20518;-67
2023/12/09 07:31:06;;;;;;;7.30;3.22;;;32.00;43.70;;;;;;6155773;23;20073;-67
2023/12/09 07:33:33;;;;;;;7.82;3.20;;;32.00;44.90;;;;;;6155652;23;20006;-67
2023/12/09 07:36:00;;;;;;;8.38;3.25;;;31.90;45.80;;;;;;6155110;23;20001;-67
2023/12/09 07:38:27;;;;;;;8.88;2.88;;;31.80;46.60;;;;;;6155065;23;20081;-68
2023/12/09 07:40:55;;;;;;;7.88;2.88;;;31.80;47.30;;;;;;6129551;23;20012;-68
2023/12/09 07:43:22;;;;;;;5.85;2.78;;;31.70;47.70;;;;;;6155580;23;20002;-68
2023/12/09 07:45:49;;;;;;;8.00;3.17;;;31.60;48.00;;;;;;6155395;23;20329;-68
2023/12/09 07:48:17;;;;;;;10.75;3.03;;;31.50;48.20;;;;;;6154999;23;20017;-69
2023/12/09 07:50:44;;;;;;;10.95;3.42;;;31.50;48.20;;;;;;6155084;23;20002;-68
2023/12/09 07:53:11;;;;;;;6.63;3.08;;;31.50;49.10;;;;;;6155435;23;20077;-68
2023/12/09 07:55:39;;;;;;;7.38;3.13;;;31.40;49.60;;;;;;6155496;23;20068;-68
2023/12/09 07:58:06;;;;;;;6.30;3.25;;;31.30;49.60;;;;;;6155212;23;20009;-68
2023/12/09 08:00:34;;;;;;;10.52;3.13;;;31.30;49.70;;;;;;6154660;23;20002;-68
2023/12/09 08:03:04;;;;;;;9.95;3.10;;;31.20;48.90;;;;;;6155116;23;20001;-68
2023/12/09 08:05:34;;;;;;;6.90;3.17;;;31.20;50.10;;;;;;6155266;23;20006;-68
2023/12/09 08:08:02;;;;;;;10.30;3.17;;;31.10;50.70;;;;;;6154985;23;20095;-68
2023/12/09 08:10:30;;;;;;;7.97;3.10;;;31.10;49.50;;;;;;6155022;23;20020;-67
2023/12/09 08:12:57;;;;;;;6.25;3.10;;;31.10;49.90;;;;;;6154509;23;20523;-68
2023/12/09 08:15:24;;;;;;;8.82;3.38;;;31.00;49.70;;;;;;6155335;23;20326;-68
2023/12/09 08:17:51;;;;;;;9.07;3.53;;;31.00;49.50;;;;;;6155116;23;20718;-67
2023/12/09 08:20:18;;;;;;;9.10;3.05;;;31.00;50.10;;;;;;6154980;23;20370;-68
2023/12/09 08:22:46;;;;;;;12.07;3.25;;;30.90;49.90;;;;;;6154748;23;20006;-67
2023/12/09 08:25:13;;;;;;;9.48;3.30;;;30.80;50.60;;;;;;6154926;23;20001;-68
2023/12/09 08:27:40;;;;;;;10.05;3.80;;;30.70;52.20;;;;;;6154508;23;20021;-68
2023/12/09 08:30:12;;;;;;;17.65;4.40;;;30.50;52.60;;;;;;6154789;23;20025;-68
2023/12/09 08:32:41;;;;;;;21.95;4.93;;;30.30;53.70;;;;;;6154664;23;20006;-68
2023/12/09 08:35:09;;;;;;;19.65;4.10;;;30.30;55.40;;;;;;6154758;23;20025;-69
2023/12/09 08:37:37;;;;;;;38.35;5.75;;;29.90;58.60;;;;;;6129235;23;20005;-68
2023/12/09 08:40:10;;;;;;;28.15;5.72;;;29.40;62.50;;;;;;6154753;23;20008;-68
2023/12/09 08:42:44;;;;;;;30.00;5.50;;;28.90;65.40;;;;;;6154469;23;20029;-68
2023/12/09 08:45:15;;;;;;;31.05;6.45;;;28.30;68.70;;;;;;6154513;23;20008;-68
2023/12/09 08:47:43;;;;;;;35.08;6.60;;;27.80;70.80;;;;;;6154705;23;20385;-69
2023/12/09 08:50:10;;;;;;;32.33;7.30;;;27.20;73.50;;;;;;6154403;23;20425;-67
2023/12/09 08:52:39;;;;;;;35.20;6.72;;;26.90;74.80;;;;;;6154756;23;20121;-67
2023/12/09 08:55:07;;;;;;;33.20;6.28;;;26.80;75.40;;;;;;6154559;23;20036;-68
2023/12/09 08:57:34;;;;;;;30.98;5.38;;;26.90;75.50;;;;;;6154898;23;20021;-68
2023/12/09 09:00:07;;;;;;;29.95;7.03;;;26.80;76.20;;;;;;6154881;23;20310;-68
2023/12/09 09:02:34;;;;;;;30.13;6.45;;;26.40;77.60;;;;;;6154799;23;20009;-67
2023/12/09 09:05:03;;;;;;;37.60;6.97;;;26.30;78.10;;;;;;6154604;23;20008;-68
2023/12/09 09:07:30;;;;;;;41.00;7.97;;;26.20;78.40;;;;;;6154610;23;20791;-68
2023/12/09 09:09:57;;;;;;;36.03;7.57;;;26.10;79.10;;;;;;6154121;23;20033;-68
2023/12/09 09:12:24;;;;;;;37.60;7.40;;;26.00;79.40;;;;;;6154444;23;20004;-69
2023/12/09 09:14:52;;;;;;;34.53;7.47;;;26.00;79.70;;;;;;6154705;23;20450;-67
2023/12/09 09:17:19;;;;;;;39.90;7.88;;;25.80;80.00;;;;;;6155344;23;20005;-68
2023/12/09 09:19:46;;;;;;;33.13;6.43;;;25.70;80.60;;;;;;6154508;23;20306;-68
2023/12/09 09:22:13;;;;;;;42.25;8.18;;;25.60;80.60;;;;;;6154283;23;20030;-68
2023/12/09 09:24:41;;;;;;;41.08;7.65;;;25.50;80.90;;;;;;6155682;23;20009;-69
2023/12/09 09:27:09;;;;;;;40.45;7.38;;;25.40;81.20;;;;;;6157057;23;20013;-69
2023/12/09 09:29:36;;;;;;;40.72;7.93;;;25.40;81.30;;;;;;6156504;23;20400;-70
2023/12/09 09:32:04;;;;;;;39.90;6.88;;;25.50;81.20;;;;;;6156403;23;20005;-68
2023/12/09 09:34:34;;;;;;;41.78;6.80;;;25.40;81.30;;;;;;6156336;23;20021;-68
2023/12/09 09:37:01;;;;;;;36.30;6.93;;;25.30;81.80;;;;;;6156323;23;20002;-70
2023/12/09 09:39:28;;;;;;;43.70;7.15;;;25.10;82.20;;;;;;6156779;23;20020;-68
2023/12/09 09:42:08;;;;;;;34.30;6.68;;;25.10;82.30;;;;;;6156605;23;20032;-68
2023/12/09 09:44:38;;;;;;;31.67;6.57;;;25.20;82.00;;;;;;6156504;23;20470;-68
2023/12/09 09:47:06;;;;;;;30.52;6.45;;;25.20;82.00;;;;;;6131188;23;20014;-69
2023/12/09 09:49:33;;;;;;;32.13;6.63;;;25.20;82.00;;;;;;6131386;23;20010;-69
2023/12/09 09:52:00;;;;;;;34.60;7.40;;;25.10;81.90;;;;;;6130548;23;20672;-69
2023/12/09 09:54:33;;;;;;;31.25;6.82;;;25.20;81.90;;;;;;6105861;23;20005;-69
2023/12/09 09:57:03;;;;;;;30.98;6.60;;;25.00;82.30;;;;;;6105875;23;20064;-69
2023/12/09 09:59:31;;;;;;;32.92;6.45;;;24.90;82.60;;;;;;6130328;23;20026;-69
2023/12/09 10:01:58;;;;;;;36.55;6.68;;;24.80;83.00;;;;;;6156118;23;20013;-68
2023/12/09 10:04:25;;;;;;;37.20;7.68;;;24.80;83.30;;;;;;6156192;23;20004;-69
2023/12/09 10:06:53;;;;;;;36.65;6.47;;;24.80;83.20;;;;;;6130675;23;20341;-68
2023/12/09 10:09:20;;;;;;;32.08;7.07;;;24.80;83.50;;;;;;6156122;23;20002;-69
2023/12/09 10:11:47;;;;;;;32.05;5.97;;;24.80;83.50;;;;;;6156768;23;20064;-68
2023/12/09 10:14:14;;;;;;;26.27;5.63;;;24.70;83.90;;;;;;6156257;23;20448;-69
2023/12/09 10:16:42;;;;;;;27.80;5.20;;;24.60;84.00;;;;;;6156062;23;20013;-69
2023/12/09 10:19:10;;;;;;;27.33;5.18;;;24.70;84.00;;;;;;6130203;23;20388;-70
2023/12/09 10:21:37;;;;;;;34.05;6.03;;;24.70;83.80;;;;;;6130619;23;19998;-69
2023/12/09 10:24:05;;;;;;;29.65;6.20;;;24.60;84.00;;;;;;6156056;23;20326;-68
2023/12/09 10:26:33;;;;;;;29.58;5.68;;;24.50;84.50;;;;;;6106150;23;20006;-67
2023/12/09 10:29:00;;;;;;;31.35;5.80;;;24.50;84.40;;;;;;6155663;23;20021;-68
2023/12/09 10:31:29;;;;;;;23.10;4.72;;;24.40;84.60;;;;;;6130057;23;20009;-67
2023/12/09 10:33:56;;;;;;;26.55;5.95;;;24.50;84.40;;;;;;6155373;23;20008;-70
2023/12/09 10:36:24;;;;;;;26.38;5.38;;;24.40;84.80;;;;;;6155216;23;20333;-68
2023/12/09 10:38:53;;;;;;;30.70;5.75;;;24.30;84.90;;;;;;6156458;23;20476;-69
2023/12/09 10:41:21;;;;;;;25.70;6.13;;;24.40;84.80;;;;;;6129798;23;20034;-69
2023/12/09 10:43:49;;;;;;;26.17;5.32;;;24.50;84.60;;;;;;6156011;23;20055;-69
2023/12/09 10:46:16;;;;;;;24.90;5.40;;;24.40;84.80;;;;;;6155625;23;20010;-69
2023/12/09 10:48:43;;;;;;;26.77;5.43;;;24.40;84.50;;;;;;6155510;23;20014;-68
2023/12/09 10:51:10;;;;;;;30.05;6.40;;;24.40;84.50;;;;;;6155987;23;20091;-68
2023/12/09 10:53:37;;;;;;;28.80;5.70;;;24.40;84.60;;;;;;6155808;23;20005;-70
2023/12/09 10:56:05;;;;;;;26.35;5.72;;;24.50;84.60;;;;;;6156074;23;19998;-69
2023/12/09 10:58:32;;;;;;;35.67;6.00;;;24.50;84.20;;;;;;6155750;23;20002;-69
2023/12/09 11:01:00;;;;;;;26.92;5.28;;;24.30;84.60;;;;;;6105306;23;20425;-69
2023/12/09 11:03:27;;;;;;;32.42;5.82;;;24.30;84.70;;;;;;6130038;23;20012;-68
2023/12/09 11:05:54;;;;;;;40.35;5.95;;;24.20;85.10;;;;;;6156597;23;19998;-69
2023/12/09 11:08:23;;;;;;;21.95;5.30;;;24.20;85.10;;;;;;6129742;23;20152;-68
2023/12/09 11:10:51;;;;;;;30.02;5.10;;;24.10;85.20;;;;;;6105979;23;20448;-68
2023/12/09 11:13:19;;;;;;;28.88;4.80;;;24.10;85.40;;;;;;6104945;23;20432;-69
2023/12/09 11:15:47;;;;;;;22.98;4.32;;;24.00;85.30;;;;;;6155632;23;20006;-70
2023/12/09 11:18:17;;;;;;;23.33;4.63;;;24.00;85.30;;;;;;6155800;23;20056;-69
2023/12/09 11:20:45;;;;;;;25.63;4.57;;;24.00;85.30;;;;;;6155679;23;20009;-68
2023/12/09 11:23:13;;;;;;;20.73;4.32;;;24.00;85.10;;;;;;6155236;23;20429;-71
2023/12/09 11:25:42;;;;;;;18.65;4.07;;;24.00;85.30;;;;;;6129723;23;20329;-69
2023/12/09 11:28:14;;;;;;;18.35;4.40;;;24.00;85.40;;;;;;6104507;23;20014;-68
2023/12/09 11:30:46;;;;;;;17.92;3.85;;;24.10;85.30;;;;;;6130644;23;20421;-70
2023/12/09 11:33:14;;;;;;;21.30;3.75;;;24.00;85.40;;;;;;6155704;23;20005;-68
2023/12/09 11:35:41;;;;;;;18.40;4.25;;;23.90;85.60;;;;;;6155919;23;20017;-68
2023/12/09 11:38:11;;;;;;;17.15;3.72;;;23.80;85.70;;;;;;6129322;23;20005;-68
2023/12/09 11:40:38;;;;;;;19.48;3.92;;;23.90;85.80;;;;;;6105356;23;20013;-68
2023/12/09 11:43:08;;;;;;;73.30;18.55;;;24.00;85.80;;;;;;6155553;23;20002;-69
2023/12/09 11:45:36;;;;;;;336.85;80.15;;;24.00;85.60;;;;;;6153699;23;20360;-68
2023/12/09 11:48:04;;;;;;;15.65;3.00;;;23.90;85.70;;;;;;6155383;23;20092;-68
2023/12/09 11:50:31;;;;;;;276.20;66.15;;;23.90;85.70;;;;;;6129508;23;20480;-69
2023/12/09 11:52:59;;;;;;;19.77;3.50;;;23.90;85.80;;;;;;6155099;23;20013;-68
2023/12/09 11:55:27;;;;;;;19.23;3.63;;;23.90;85.90;;;;;;6155367;23;20036;-68
2023/12/09 11:57:54;;;;;;;14.35;3.40;;;24.00;85.60;;;;;;6155248;23;20381;-67
2023/12/09 12:00:21;;;;;;;40.47;9.15;;;24.00;85.50;;;;;;6155222;23;20014;-69
2023/12/09 12:02:48;;;;;;;206.27;60.05;;;23.90;85.70;;;;;;6155402;23;20002;-68
2023/12/09 12:05:15;;;;;;;837.53;242.38;;;23.90;85.70;;;;;;6155575;23;20069;-71
2023/12/09 12:07:43;;;;;;;162.35;44.83;;;23.80;85.80;;;;;;6155130;23;20010;-67
2023/12/09 12:10:10;;;;;;;14.52;3.10;;;23.70;86.20;;;;;;6129216;23;20084;-66
2023/12/09 12:12:38;;;;;;;10.25;2.60;;;23.70;86.30;;;;;;6155108;23;20009;-66
2023/12/09 12:15:06;;;;;;;13.80;3.00;;;23.60;86.40;;;;;;6129361;23;20028;-66
2023/12/09 12:17:40;;;;;;;13.75;3.22;;;23.70;86.40;;;;;;6104971;23;20006;-66
2023/12/09 12:20:08;;;;;;;18.58;3.20;;;23.50;86.50;;;;;;6154990;23;20005;-67
2023/12/09 12:22:36;;;;;;;20.00;3.50;;;23.50;86.60;;;;;;6129070;23;20437;-67
2023/12/09 12:25:04;;;;;;;13.40;3.30;;;23.50;86.70;;;;;;6155253;23;19998;-67
2023/12/09 12:27:35;;;;;;;15.65;3.30;;;23.40;87.00;;;;;;6155018;23;20025;-68
2023/12/09 12:30:03;;;;;;;14.63;3.25;;;23.40;86.80;;;;;;6129124;23;20354;-68
2023/12/09 12:32:37;;;;;;;22.10;3.25;;;23.30;87.00;;;;;;6155057;23;20013;-68
2023/12/09 12:35:06;;;;;;;11.65;3.03;;;23.30;87.10;;;;;;6129884;23;20329;-69
2023/12/09 12:37:34;;;;;;;15.63;3.20;;;23.30;87.00;;;;;;6155219;23;20002;-69
2023/12/09 12:40:01;;;;;;;14.20;3.38;;;23.30;86.90;;;;;;6154915;23;20006;-69
2023/12/09 12:42:29;;;;;;;12.25;2.83;;;23.30;86.80;;;;;;6154909;23;20069;-68
2023/12/09 12:44:58;;;;;;;17.95;3.40;;;23.10;87.10;;;;;;6155176;23;20084;-67